createdAt,value
2023-10-26T00:00:44.234Z,82.87
2023-10-26T00:01:44.248Z,82.79
2023-10-26T00:02:44.257Z,82.90
2023-10-26T00:03:44.301Z,82.97
2023-10-26T00:04:44.393Z,83.07
2023-10-26T00:05:44.203Z,83.00
2023-10-26T00:06:44.170Z,82.96
2023-10-26T00:07:44.160Z,82.94
2023-10-26T00:08:44.182Z,82.87
2023-10-26T00:09:44.146Z,82.88
2023-10-26T00:10:44.137Z,82.83
2023-10-26T00:11:44.136Z,82.78
2023-10-26T00:12:44.126Z,82.86
2023-10-26T00:13:44.133Z,82.90
2023-10-26T00:14:44.245Z,82.93
2023-10-26T00:15:44.082Z,82.91
2023-10-26T00:16:44.063Z,82.84
2023-10-26T00:17:44.114Z,82.88
2023-10-26T00:18:44.196Z,82.86
2023-10-26T00:19:44.045Z,82.85
2023-10-26T00:20:44.028Z,82.83
2023-10-26T00:21:44.066Z,82.78
2023-10-26T00:22:44.013Z,82.86
2023-10-26T00:23:44.025Z,82.89
2023-10-26T00:25:43.987Z,82.79
2023-10-26T00:26:43.960Z,82.78
2023-10-26T00:27:43.971Z,82.74
2023-10-26T00:28:43.972Z,82.64
2023-10-26T00:29:43.940Z,82.62
2023-10-26T00:30:43.964Z,82.58
2023-10-26T00:31:43.922Z,82.60
2023-10-26T00:32:43.980Z,82.57
2023-10-26T00:33:43.976Z,82.52
2023-10-26T00:34:51.433Z,82.47
2023-10-26T00:35:43.886Z,82.54
2023-10-26T00:36:43.852Z,82.60
2023-10-26T00:37:43.880Z,82.61
2023-10-26T00:38:43.859Z,82.55
2023-10-26T00:39:43.866Z,82.45
2023-10-26T00:40:43.827Z,82.41
2023-10-26T00:41:43.806Z,82.49
2023-10-26T00:42:43.841Z,82.52
2023-10-26T00:43:43.872Z,82.50
2023-10-26T00:44:44.002Z,82.51
2023-10-26T00:45:43.790Z,82.53
2023-10-26T00:46:43.734Z,82.48
2023-10-26T00:47:43.799Z,82.56
2023-10-26T00:48:44.129Z,82.61
2023-10-26T00:49:43.725Z,82.56
2023-10-26T00:50:43.709Z,82.54
2023-10-26T00:51:43.781Z,82.56
2023-10-26T00:52:43.676Z,82.70
2023-10-26T00:53:43.696Z,82.79
2023-10-26T00:54:43.864Z,82.86
2023-10-26T00:55:43.667Z,82.85
2023-10-26T00:56:43.653Z,82.77
2023-10-26T00:57:43.644Z,82.82
2023-10-26T00:58:43.664Z,82.83
2023-10-26T00:59:43.622Z,82.77
2023-10-26T01:00:43.651Z,82.70
2023-10-26T01:01:43.609Z,82.66
2023-10-26T01:02:43.584Z,82.70
2023-10-26T01:03:43.604Z,82.83
2023-10-26T01:04:43.793Z,82.78
2023-10-26T01:05:43.562Z,82.75
2023-10-26T01:06:43.587Z,82.86
2023-10-26T01:07:43.519Z,82.80
2023-10-26T01:08:43.544Z,82.79
2023-10-26T01:09:43.524Z,82.71
2023-10-26T01:10:43.518Z,82.65
2023-10-26T01:11:43.593Z,82.64
2023-10-26T01:12:43.577Z,82.74
2023-10-26T01:13:43.486Z,82.68
2023-10-26T01:14:43.663Z,82.70
2023-10-26T01:15:43.462Z,82.76
2023-10-26T01:16:43.441Z,82.75
2023-10-26T01:17:43.480Z,82.80
2023-10-26T01:18:43.499Z,82.73
2023-10-26T01:19:43.393Z,82.92
2023-10-26T01:20:43.405Z,82.94
2023-10-26T01:21:43.389Z,82.87
2023-10-26T01:22:43.365Z,82.83
2023-10-26T01:23:43.348Z,82.76
2023-10-26T01:24:43.594Z,82.76
2023-10-26T01:25:43.349Z,82.78
2023-10-26T01:26:43.314Z,82.77
2023-10-26T01:27:43.304Z,82.80
2023-10-26T01:28:43.323Z,82.76
2023-10-26T01:29:43.303Z,82.79
2023-10-26T01:30:43.276Z,82.79
2023-10-26T01:31:43.288Z,82.83
2023-10-26T01:32:43.281Z,82.83
2023-10-26T01:33:43.284Z,82.82
2023-10-26T01:34:43.448Z,82.89
2023-10-26T01:35:43.270Z,82.88
2023-10-26T01:36:43.216Z,82.86
2023-10-26T01:37:43.227Z,82.91
2023-10-26T01:38:43.223Z,82.87
2023-10-26T01:39:43.220Z,82.86
2023-10-26T01:40:43.184Z,82.82
2023-10-26T01:41:43.180Z,82.83
2023-10-26T01:42:43.149Z,82.87
2023-10-26T01:43:43.156Z,82.95
2023-10-26T01:44:43.263Z,82.99
2023-10-26T01:45:43.140Z,83.02
2023-10-26T01:46:43.105Z,82.98
2023-10-26T01:47:43.133Z,82.96
2023-10-26T01:48:43.166Z,82.89
2023-10-26T01:49:43.087Z,82.86
2023-10-26T01:50:43.099Z,82.87
2023-10-26T01:51:43.071Z,82.89
2023-10-26T01:52:43.056Z,82.90
2023-10-26T01:53:43.034Z,82.88
2023-10-26T01:54:43.219Z,82.86
2023-10-26T01:55:42.999Z,82.89
2023-10-26T01:56:43.006Z,82.85
2023-10-26T01:57:43.045Z,82.87
2023-10-26T01:58:42.991Z,82.84
2023-10-26T01:59:42.979Z,82.86
2023-10-26T02:00:42.961Z,82.81
2023-10-26T02:01:42.991Z,82.76
2023-10-26T02:02:42.969Z,82.67
2023-10-26T02:03:42.945Z,82.73
2023-10-26T02:04:43.207Z,82.66
2023-10-26T02:05:42.985Z,82.68
2023-10-26T02:06:43.011Z,82.69
2023-10-26T02:07:42.891Z,82.69
2023-10-26T02:08:42.853Z,82.73
2023-10-26T02:09:42.874Z,82.79
2023-10-26T02:10:42.872Z,82.85
2023-10-26T02:11:42.844Z,82.89
2023-10-26T02:12:42.830Z,82.88
2023-10-26T02:13:42.838Z,82.92
2023-10-26T02:14:42.996Z,82.89
2023-10-26T02:15:42.822Z,82.81
2023-10-26T02:16:42.776Z,82.64
2023-10-26T02:17:42.832Z,82.57
2023-10-26T02:18:42.820Z,82.58
2023-10-26T02:19:42.769Z,82.59
2023-10-26T02:20:42.780Z,82.63
2023-10-26T02:21:42.747Z,82.60
2023-10-26T02:22:42.715Z,82.49
2023-10-26T02:23:42.745Z,82.38
2023-10-26T02:24:43.007Z,82.39
2023-10-26T02:25:42.694Z,82.39
2023-10-26T02:26:42.677Z,82.43
2023-10-26T02:27:42.671Z,82.40
2023-10-26T02:28:42.705Z,82.41
2023-10-26T02:29:42.651Z,82.38
2023-10-26T02:30:42.621Z,82.37
2023-10-26T02:31:42.652Z,82.42
2023-10-26T02:32:42.631Z,82.47
2023-10-26T02:33:42.671Z,82.51
2023-10-26T02:34:42.866Z,82.52
2023-10-26T02:35:42.576Z,82.54
2023-10-26T02:36:42.575Z,82.40
2023-10-26T02:37:42.550Z,82.25
2023-10-26T02:38:42.571Z,82.21
2023-10-26T02:39:42.565Z,82.21
2023-10-26T02:40:42.554Z,82.15
2023-10-26T02:41:42.549Z,82.04
2023-10-26T02:42:42.517Z,81.93
2023-10-26T02:43:42.496Z,81.94
2023-10-26T02:44:42.737Z,81.93
2023-10-26T02:45:42.464Z,81.90
2023-10-26T02:46:42.443Z,81.91
2023-10-26T02:47:42.457Z,81.80
2023-10-26T02:48:42.488Z,81.66
2023-10-26T02:49:42.433Z,81.45
2023-10-26T02:50:42.682Z,81.31
2023-10-26T02:51:42.444Z,81.26
2023-10-26T02:52:42.388Z,81.30
2023-10-26T02:53:42.379Z,81.28
2023-10-26T02:54:42.557Z,81.27
2023-10-26T02:55:44.229Z,81.10
2023-10-26T02:56:42.344Z,80.94
2023-10-26T02:57:42.359Z,80.89
2023-10-26T02:58:42.572Z,80.77
2023-10-26T02:59:42.312Z,80.70
2023-10-26T03:00:42.315Z,80.60
2023-10-26T03:01:42.315Z,80.57
2023-10-26T03:02:42.289Z,80.59
2023-10-26T03:03:42.326Z,80.52
2023-10-26T03:04:42.446Z,80.37
2023-10-26T03:05:42.277Z,80.13
2023-10-26T03:06:42.261Z,80.09
2023-10-26T03:07:42.528Z,80.05
2023-10-26T03:08:42.482Z,80.05
2023-10-26T03:09:42.353Z,80.10
2023-10-26T03:10:42.222Z,80.11
2023-10-26T03:11:42.221Z,80.14
2023-10-26T03:12:42.177Z,79.92
2023-10-26T03:13:42.167Z,79.89
2023-10-26T03:14:42.299Z,79.90
2023-10-26T03:15:42.176Z,79.83
2023-10-26T03:16:42.164Z,79.63
2023-10-26T03:17:42.134Z,79.43
2023-10-26T03:18:42.178Z,79.32
2023-10-26T03:19:42.110Z,79.14
2023-10-26T03:20:42.140Z,79.08
2023-10-26T03:21:42.133Z,79.19
2023-10-26T03:22:42.102Z,79.25
2023-10-26T03:23:42.410Z,79.18
2023-10-26T03:24:42.561Z,79.18
2023-10-26T03:25:42.070Z,79.00
2023-10-26T03:26:42.048Z,78.82
2023-10-26T03:27:42.055Z,78.71
2023-10-26T03:28:42.027Z,78.73
2023-10-26T03:29:42.316Z,78.71
2023-10-26T03:30:42.057Z,78.72
2023-10-26T03:31:42.024Z,78.84
2023-10-26T03:32:42.007Z,78.81
2023-10-26T03:33:42.027Z,78.79
2023-10-26T03:34:42.155Z,78.77
2023-10-26T03:35:41.988Z,78.85
2023-10-26T03:36:41.945Z,78.88
2023-10-26T03:37:42.016Z,78.82
2023-10-26T03:38:42.209Z,78.86
2023-10-26T03:39:41.919Z,78.87
2023-10-26T03:40:41.984Z,78.94
2023-10-26T03:41:41.913Z,78.75
2023-10-26T03:42:41.924Z,78.79
2023-10-26T03:43:41.873Z,78.69
2023-10-26T03:44:42.139Z,78.66
2023-10-26T03:45:42.161Z,78.70
2023-10-26T03:46:41.825Z,78.82
2023-10-26T03:47:41.962Z,78.89
2023-10-26T03:48:41.894Z,78.95
2023-10-26T03:49:41.855Z,79.07
2023-10-26T03:50:41.843Z,79.09
2023-10-26T03:51:41.784Z,79.10
2023-10-26T03:52:41.792Z,79.09
2023-10-26T03:53:42.057Z,79.05
2023-10-26T03:54:41.833Z,79.05
2023-10-26T03:55:42.131Z,79.10
2023-10-26T03:56:41.776Z,79.04
2023-10-26T03:57:41.720Z,79.00
2023-10-26T03:58:41.710Z,78.96
2023-10-26T03:59:41.746Z,78.93
2023-10-26T04:00:41.678Z,78.96
2023-10-26T04:01:41.706Z,78.76
2023-10-26T04:02:41.675Z,78.70
2023-10-26T04:03:41.690Z,78.67
2023-10-26T04:04:41.814Z,78.69
2023-10-26T04:05:41.670Z,78.70
2023-10-26T04:06:41.628Z,78.73
2023-10-26T04:07:41.660Z,78.72
2023-10-26T04:08:41.587Z,78.77
2023-10-26T04:09:41.583Z,78.77
2023-10-26T04:10:41.620Z,78.79
2023-10-26T04:11:41.599Z,78.87
2023-10-26T04:12:41.516Z,78.82
2023-10-26T04:13:41.540Z,78.82
2023-10-26T04:14:41.548Z,78.83
2023-10-26T04:15:41.551Z,78.79
2023-10-26T04:16:41.519Z,78.77
2023-10-26T04:17:41.551Z,78.79
2023-10-26T04:18:41.541Z,78.79
2023-10-26T04:19:41.495Z,78.73
2023-10-26T04:20:41.527Z,78.77
2023-10-26T04:21:41.476Z,78.80
2023-10-26T04:22:41.449Z,78.77
2023-10-26T04:23:41.445Z,78.75
2023-10-26T04:24:41.426Z,78.71
2023-10-26T04:25:54.036Z,78.68
2023-10-26T04:26:42.606Z,78.68
2023-10-26T04:27:41.426Z,78.69
2023-10-26T04:28:51.585Z,78.74
2023-10-26T04:29:42.435Z,78.81
2023-10-26T04:30:41.362Z,78.83
2023-10-26T04:31:41.446Z,78.87
2023-10-26T04:32:41.358Z,78.81
2023-10-26T04:33:41.396Z,78.79
2023-10-26T04:34:41.294Z,78.81
2023-10-26T04:35:41.449Z,78.89
2023-10-26T04:36:41.285Z,78.83
2023-10-26T04:37:41.265Z,78.82
2023-10-26T04:38:41.253Z,78.85
2023-10-26T04:39:41.287Z,78.75
2023-10-26T04:40:41.274Z,78.75
2023-10-26T04:41:41.238Z,78.77
2023-10-26T04:42:41.232Z,78.69
2023-10-26T04:43:41.214Z,78.53
2023-10-26T04:44:41.317Z,78.54
2023-10-26T04:45:41.249Z,78.60
2023-10-26T04:46:41.250Z,78.60
2023-10-26T04:47:41.207Z,78.55
2023-10-26T04:48:41.209Z,78.50
2023-10-26T04:49:41.161Z,78.50
2023-10-26T04:50:41.143Z,78.45
2023-10-26T04:51:41.190Z,78.46
2023-10-26T04:52:41.183Z,78.49
2023-10-26T04:53:41.125Z,78.52
2023-10-26T04:54:41.165Z,78.58
2023-10-26T04:55:41.158Z,78.62
2023-10-26T04:56:41.110Z,78.57
2023-10-26T04:57:41.087Z,78.59
2023-10-26T04:58:41.060Z,78.64
2023-10-26T04:59:41.110Z,78.73
2023-10-26T05:00:41.332Z,78.75
2023-10-26T05:01:45.242Z,78.73
2023-10-26T05:03:52.833Z,78.46
2023-10-26T05:04:52.824Z,78.82
2023-10-26T05:05:52.847Z,78.87
2023-10-26T05:06:52.859Z,78.88
2023-10-26T05:07:52.791Z,78.86
2023-10-26T05:08:52.771Z,78.75
2023-10-26T05:09:52.772Z,78.71
2023-10-26T05:10:52.792Z,78.63
2023-10-26T05:11:53.190Z,78.59
2023-10-26T05:12:52.733Z,78.65
2023-10-26T05:13:52.721Z,78.61
2023-10-26T05:14:52.712Z,78.68
2023-10-26T05:15:52.759Z,78.69
2023-10-26T05:16:52.760Z,78.64
2023-10-26T05:17:52.695Z,78.62
2023-10-26T05:18:52.663Z,78.60
2023-10-26T05:19:52.651Z,78.57
2023-10-26T05:20:52.660Z,78.57
2023-10-26T05:21:52.680Z,78.50
2023-10-26T05:22:52.614Z,78.48
2023-10-26T05:23:52.624Z,78.43
2023-10-26T05:24:52.598Z,78.46
2023-10-26T05:25:52.588Z,78.50
2023-10-26T05:26:52.598Z,78.49
2023-10-26T05:27:52.601Z,78.47
2023-10-26T05:28:52.553Z,78.42
2023-10-26T05:29:52.540Z,78.43
2023-10-26T05:30:52.531Z,78.44
2023-10-26T05:31:52.579Z,78.49
2023-10-26T05:32:52.536Z,78.52
2023-10-26T05:33:52.603Z,78.49
2023-10-26T05:34:52.495Z,78.48
2023-10-26T05:35:52.472Z,78.47
2023-10-26T05:36:52.485Z,78.53
2023-10-26T05:37:52.461Z,78.52
2023-10-26T05:38:52.449Z,78.54
2023-10-26T05:39:52.448Z,78.57
2023-10-26T05:40:52.429Z,78.63
2023-10-26T05:41:52.492Z,78.66
2023-10-26T05:42:52.393Z,78.66
2023-10-26T05:43:52.387Z,78.70
2023-10-26T05:44:52.388Z,78.68
2023-10-26T05:45:52.396Z,78.68
2023-10-26T05:46:52.390Z,78.66
2023-10-26T05:47:52.391Z,78.60
2023-10-26T05:48:52.372Z,78.55
2023-10-26T05:49:52.342Z,78.59
2023-10-26T05:50:52.307Z,78.52
2023-10-26T05:51:52.324Z,78.46
2023-10-26T05:52:52.303Z,78.48
2023-10-26T05:53:52.354Z,78.45
2023-10-26T05:54:52.260Z,78.43
2023-10-26T05:55:52.238Z,78.47
2023-10-26T05:56:52.292Z,78.49
2023-10-26T05:57:52.234Z,78.49
2023-10-26T05:58:52.226Z,78.54
2023-10-26T05:59:52.226Z,78.58
2023-10-26T06:00:52.200Z,78.58
2023-10-26T06:01:52.294Z,78.63
2023-10-26T06:02:52.245Z,78.66
2023-10-26T06:03:52.152Z,78.62
2023-10-26T06:04:52.285Z,78.61
2023-10-26T06:05:52.161Z,78.69
2023-10-26T06:06:52.177Z,78.81
2023-10-26T06:07:52.164Z,78.89
2023-10-26T06:08:52.107Z,78.85
2023-10-26T06:09:52.104Z,78.85
2023-10-26T06:10:52.088Z,78.80
2023-10-26T06:11:52.084Z,78.78
2023-10-26T06:12:52.187Z,78.73
2023-10-26T06:13:52.080Z,78.73
2023-10-26T06:14:52.053Z,78.65
2023-10-26T06:15:52.032Z,78.67
2023-10-26T06:16:52.066Z,78.67
2023-10-26T06:17:52.032Z,78.70
2023-10-26T06:18:51.997Z,78.72
2023-10-26T06:19:51.970Z,78.80
2023-10-26T06:20:52.184Z,78.81
2023-10-26T06:21:51.983Z,78.86
2023-10-26T06:22:51.959Z,78.86
2023-10-26T06:23:51.959Z,78.91
2023-10-26T06:24:51.937Z,78.93
2023-10-26T06:25:51.974Z,78.87
2023-10-26T06:26:51.904Z,78.91
2023-10-26T06:27:51.918Z,78.90
2023-10-26T06:28:51.905Z,78.86
2023-10-26T06:29:51.908Z,78.97
2023-10-26T06:30:51.879Z,78.99
2023-10-26T06:31:51.936Z,78.97
2023-10-26T06:32:51.892Z,79.00
2023-10-26T06:33:51.922Z,78.98
2023-10-26T06:34:59.366Z,78.98
2023-10-26T06:35:51.796Z,79.05
2023-10-26T06:36:51.831Z,79.07
2023-10-26T06:37:51.800Z,79.04
2023-10-26T06:38:51.778Z,79.04
2023-10-26T06:39:51.924Z,79.02
2023-10-26T06:40:51.758Z,79.06
2023-10-26T06:41:51.800Z,79.05
2023-10-26T06:42:51.792Z,79.01
2023-10-26T06:43:51.763Z,79.10
2023-10-26T06:44:51.719Z,79.12
2023-10-26T06:45:51.740Z,79.12
2023-10-26T06:46:51.765Z,79.16
2023-10-26T06:47:51.764Z,79.16
2023-10-26T06:48:51.740Z,79.11
2023-10-26T06:49:51.652Z,79.09
2023-10-26T06:50:51.669Z,79.15
2023-10-26T06:51:51.726Z,79.15
2023-10-26T06:52:51.693Z,79.23
2023-10-26T06:53:51.630Z,79.29
2023-10-26T06:54:51.642Z,79.36
2023-10-26T06:55:51.744Z,79.42
2023-10-26T06:56:51.682Z,79.45
2023-10-26T06:57:51.624Z,79.47
2023-10-26T06:58:51.548Z,79.52
2023-10-26T06:59:51.697Z,79.53
2023-10-26T07:00:53.191Z,79.52
2023-10-26T07:02:08.357Z,79.45
2023-10-26T07:02:52.607Z,79.40
2023-10-26T07:03:51.641Z,79.41
2023-10-26T07:04:51.590Z,79.35
2023-10-26T07:05:51.493Z,79.37
2023-10-26T07:06:51.547Z,79.33
2023-10-26T07:07:51.508Z,79.27
2023-10-26T07:08:56.457Z,79.27
2023-10-26T07:09:52.438Z,79.24
2023-10-26T07:10:51.474Z,79.19
2023-10-26T07:11:51.517Z,79.24
2023-10-26T07:12:51.460Z,79.21
2023-10-26T07:13:51.429Z,79.22
2023-10-26T07:14:51.462Z,79.30
2023-10-26T07:15:51.440Z,79.31
2023-10-26T07:16:51.440Z,79.26
2023-10-26T07:17:51.446Z,79.23
2023-10-26T07:18:51.385Z,79.14
2023-10-26T07:19:51.453Z,79.04
2023-10-26T07:20:51.325Z,78.91
2023-10-26T07:21:51.371Z,78.88
2023-10-26T07:22:51.362Z,78.88
2023-10-26T07:23:51.359Z,78.88
2023-10-26T07:24:51.344Z,78.85
2023-10-26T07:25:51.384Z,78.77
2023-10-26T07:26:51.264Z,78.73
2023-10-26T07:27:51.274Z,78.74
2023-10-26T07:28:51.302Z,78.63
2023-10-26T07:29:51.320Z,78.59
2023-10-26T07:30:51.212Z,78.57
2023-10-26T07:31:51.437Z,78.48
2023-10-26T07:32:51.317Z,78.38
2023-10-26T07:33:51.235Z,78.28
2023-10-26T07:34:51.201Z,78.29
2023-10-26T07:35:51.275Z,78.34
2023-10-26T07:36:51.143Z,78.19
2023-10-26T07:38:05.282Z,78.03
2023-10-26T07:39:44.726Z,78.01
2023-10-26T07:39:52.231Z,77.94
2023-10-26T07:40:52.192Z,77.95
2023-10-26T07:42:08.094Z,77.88
2023-10-26T07:42:52.213Z,77.68
2023-10-26T07:43:51.157Z,77.41
2023-10-26T07:44:51.072Z,77.37
2023-10-26T07:45:51.088Z,77.14
2023-10-26T07:46:51.060Z,76.93
2023-10-26T07:47:51.117Z,76.89
2023-10-26T07:48:51.071Z,76.90
2023-10-26T07:49:51.017Z,76.90
2023-10-26T07:50:51.090Z,76.76
2023-10-26T07:51:51.003Z,76.72
2023-10-26T07:52:51.058Z,76.50
2023-10-26T07:53:51.037Z,76.26
2023-10-26T07:54:50.989Z,76.17
2023-10-26T07:55:50.953Z,76.09
2023-10-26T07:56:50.926Z,76.03
2023-10-26T07:57:50.939Z,75.60
2023-10-26T07:58:50.983Z,75.34
2023-10-26T07:59:50.921Z,75.14
2023-10-26T08:00:50.880Z,75.06
2023-10-26T08:01:50.924Z,75.04
2023-10-26T08:02:51.078Z,75.16
2023-10-26T08:03:50.845Z,75.01
2023-10-26T08:04:50.964Z,74.76
2023-10-26T08:05:50.841Z,74.48
2023-10-26T08:06:50.921Z,74.33
2023-10-26T08:07:50.815Z,74.41
2023-10-26T08:08:50.908Z,74.56
2023-10-26T08:09:50.799Z,74.34
2023-10-26T08:10:50.794Z,74.14
2023-10-26T08:11:50.777Z,73.74
2023-10-26T08:12:50.749Z,73.10
2023-10-26T08:13:50.780Z,73.15
2023-10-26T08:16:28.904Z,73.44
2023-10-26T08:16:29.926Z,73.58
2023-10-26T08:16:52.090Z,73.72
2023-10-26T08:17:50.814Z,73.60
2023-10-26T08:18:50.749Z,73.47
2023-10-26T08:19:50.727Z,73.34
2023-10-26T08:20:50.652Z,73.14
2023-10-26T08:21:50.649Z,73.19
2023-10-26T08:22:50.693Z,73.29
2023-10-26T08:23:50.668Z,73.36
2023-10-26T08:24:50.668Z,73.61
2023-10-26T08:25:50.634Z,73.52
2023-10-26T08:26:50.599Z,74.20
2023-10-26T08:27:50.590Z,75.09
2023-10-26T08:28:51.967Z,73.49
2023-10-26T08:29:50.570Z,72.58
2023-10-26T08:30:50.556Z,72.71
2023-10-26T08:31:50.591Z,72.90
2023-10-26T08:32:50.806Z,72.81
2023-10-26T08:33:50.536Z,72.57
2023-10-26T08:34:50.550Z,72.32
2023-10-26T08:35:50.600Z,72.18
2023-10-26T08:37:07.941Z,72.34
2023-10-26T08:37:51.554Z,72.45
2023-10-26T08:38:50.551Z,72.48
2023-10-26T08:39:50.453Z,72.26
2023-10-26T08:40:50.472Z,72.35
2023-10-26T08:41:50.445Z,72.12
2023-10-26T08:42:50.418Z,71.87
2023-10-26T08:43:50.473Z,71.54
2023-10-26T08:44:50.418Z,71.36
2023-10-26T08:45:50.456Z,71.33
2023-10-26T08:46:50.409Z,71.23
2023-10-26T08:47:50.464Z,70.99
2023-10-26T08:48:50.595Z,70.61
2023-10-26T08:50:03.658Z,70.64
2023-10-26T08:50:51.371Z,70.58
2023-10-26T08:51:50.334Z,70.68
2023-10-26T08:52:50.387Z,70.88
2023-10-26T08:53:50.313Z,71.07
2023-10-26T08:54:50.313Z,71.23
2023-10-26T08:55:50.290Z,71.20
2023-10-26T08:56:50.263Z,71.37
2023-10-26T08:57:50.337Z,71.51
2023-10-26T08:58:50.296Z,71.47
2023-10-26T08:59:50.245Z,71.63
2023-10-26T09:00:50.248Z,71.60
2023-10-26T09:01:50.308Z,71.21
2023-10-26T09:02:50.495Z,71.24
2023-10-26T09:03:50.273Z,71.36
2023-10-26T09:04:50.202Z,71.44
2023-10-26T09:05:50.174Z,71.47
2023-10-26T09:06:50.277Z,71.37
2023-10-26T09:07:50.312Z,71.25
2023-10-26T09:08:50.157Z,71.32
2023-10-26T09:09:50.162Z,71.38
2023-10-26T09:10:50.219Z,71.46
2023-10-26T09:11:50.168Z,71.36
2023-10-26T09:12:50.096Z,71.52
2023-10-26T09:13:50.170Z,71.53
2023-10-26T09:14:50.197Z,71.70
2023-10-26T09:15:50.076Z,71.70
2023-10-26T09:16:50.263Z,71.67
2023-10-26T09:17:50.054Z,71.80
2023-10-26T09:18:50.171Z,71.97
2023-10-26T09:19:50.187Z,71.95
2023-10-26T09:20:50.039Z,72.10
2023-10-26T09:21:49.986Z,71.99
2023-10-26T09:22:50.232Z,72.06
2023-10-26T09:23:49.984Z,72.14
2023-10-26T09:24:50.020Z,72.19
2023-10-26T09:25:49.959Z,72.23
2023-10-26T09:26:50.028Z,72.38
2023-10-26T09:27:49.946Z,72.26
2023-10-26T09:28:50.040Z,72.09
2023-10-26T09:29:49.925Z,72.16
2023-10-26T09:30:50.603Z,72.26
2023-10-26T09:31:49.996Z,72.26
2023-10-26T09:32:50.012Z,72.41
2023-10-26T09:33:50.537Z,72.63
2023-10-26T09:34:49.895Z,72.62
2023-10-26T09:35:49.844Z,72.49
2023-10-26T09:36:50.958Z,72.45
2023-10-26T09:37:50.071Z,72.33
2023-10-26T09:38:50.537Z,72.32
2023-10-26T09:39:54.377Z,72.19
2023-10-26T09:40:50.820Z,71.76
2023-10-26T09:41:49.778Z,71.78
2023-10-26T09:42:49.775Z,71.77
2023-10-26T09:43:49.884Z,71.74
2023-10-26T09:44:49.779Z,71.85
2023-10-26T09:45:49.867Z,71.78
2023-10-26T09:46:49.769Z,71.58
2023-10-26T09:47:49.863Z,71.57
2023-10-26T09:48:49.802Z,71.53
2023-10-26T09:49:49.732Z,71.55
2023-10-26T09:50:49.683Z,71.59
2023-10-26T09:51:49.684Z,71.65
2023-10-26T09:52:49.682Z,71.76
2023-10-26T09:53:49.982Z,71.80
2023-10-26T09:54:49.632Z,71.75
2023-10-26T09:55:49.675Z,71.78
2023-10-26T09:56:49.628Z,71.84
2023-10-26T09:57:49.632Z,71.88
2023-10-26T09:58:49.619Z,71.94
2023-10-26T09:59:49.574Z,72.05
2023-10-26T10:00:49.624Z,71.85
2023-10-26T10:01:49.641Z,71.61
2023-10-26T10:02:49.576Z,71.64
2023-10-26T10:03:49.611Z,71.64
2023-10-26T10:04:49.567Z,71.29
2023-10-26T10:05:49.534Z,71.31
2023-10-26T10:06:49.556Z,71.00
2023-10-26T10:07:49.515Z,70.71
2023-10-26T10:08:49.473Z,70.73
2023-10-26T10:09:49.519Z,70.63
2023-10-26T10:10:49.490Z,70.76
2023-10-26T10:11:49.460Z,70.86
2023-10-26T10:12:49.493Z,70.76
2023-10-26T10:13:49.434Z,70.71
2023-10-26T10:14:49.531Z,70.70
2023-10-26T10:15:49.430Z,70.73
2023-10-26T10:16:49.483Z,70.91
2023-10-26T10:17:49.517Z,70.71
2023-10-26T10:18:49.541Z,70.30
2023-10-26T10:19:49.353Z,70.06
2023-10-26T10:20:49.399Z,69.87
2023-10-26T10:21:49.419Z,69.63
2023-10-26T10:22:49.426Z,69.62
2023-10-26T10:23:49.381Z,69.76
2023-10-26T10:24:49.351Z,70.01
2023-10-26T10:25:49.349Z,69.91
2023-10-26T10:26:49.304Z,70.07
2023-10-26T10:27:49.381Z,69.97
2023-10-26T10:28:49.315Z,70.08
2023-10-26T10:29:49.245Z,70.22
2023-10-26T10:30:49.295Z,70.23
2023-10-26T10:31:49.263Z,70.25
2023-10-26T10:32:49.417Z,70.31
2023-10-26T10:33:49.229Z,70.41
2023-10-26T10:34:49.198Z,70.44
2023-10-26T10:35:49.424Z,70.61
2023-10-26T10:36:49.246Z,70.71
2023-10-26T10:37:49.226Z,70.80
2023-10-26T10:38:49.200Z,70.82
2023-10-26T10:39:49.342Z,70.82
2023-10-26T10:40:49.189Z,70.88
2023-10-26T10:41:49.190Z,70.97
2023-10-26T10:42:49.225Z,71.09
2023-10-26T10:43:49.138Z,71.07
2023-10-26T10:44:49.297Z,70.99
2023-10-26T10:45:49.274Z,70.98
2023-10-26T10:46:49.166Z,70.96
2023-10-26T10:47:49.403Z,70.95
2023-10-26T10:48:49.018Z,70.99
2023-10-26T10:49:49.039Z,71.00
2023-10-26T10:50:49.067Z,71.06
2023-10-26T10:51:49.052Z,71.12
2023-10-26T10:52:48.988Z,71.31
2023-10-26T10:53:48.959Z,71.41
2023-10-26T10:55:48.995Z,71.53
2023-10-26T10:56:48.959Z,71.27
2023-10-26T10:57:49.015Z,71.09
2023-10-26T10:58:48.951Z,70.90
2023-10-26T10:59:48.917Z,70.90
2023-10-26T11:00:48.968Z,71.04
2023-10-26T11:01:48.932Z,71.16
2023-10-26T11:02:48.908Z,71.27
2023-10-26T11:03:48.974Z,71.40
2023-10-26T11:04:57.379Z,71.36
2023-10-26T11:05:49.848Z,71.21
2023-10-26T11:06:49.140Z,70.95
2023-10-26T11:07:48.868Z,70.76
2023-10-26T11:08:48.822Z,70.49
2023-10-26T11:09:48.833Z,70.37
2023-10-26T11:10:48.939Z,70.40
2023-10-26T11:11:48.779Z,70.38
2023-10-26T11:12:48.806Z,70.36
2023-10-26T11:13:48.772Z,70.44
2023-10-26T11:14:48.778Z,70.51
2023-10-26T11:15:48.795Z,70.52
2023-10-26T11:16:48.758Z,70.30
2023-10-26T11:17:48.774Z,70.35
2023-10-26T11:18:48.762Z,69.86
2023-10-26T11:19:48.737Z,69.74
2023-10-26T11:20:48.689Z,69.58
2023-10-26T11:21:48.714Z,69.68
2023-10-26T11:22:48.667Z,69.53
2023-10-26T11:23:48.706Z,69.41
2023-10-26T11:24:48.714Z,69.27
2023-10-26T11:25:48.650Z,69.29
2023-10-26T11:26:48.622Z,69.13
2023-10-26T11:27:48.628Z,68.99
2023-10-26T11:28:48.633Z,68.41
2023-10-26T11:29:48.629Z,68.00
2023-10-26T11:30:48.850Z,68.00
2023-10-26T11:31:48.587Z,68.03
2023-10-26T11:32:48.592Z,68.16
2023-10-26T11:33:48.602Z,68.26
2023-10-26T11:34:48.571Z,68.18
2023-10-26T11:35:48.530Z,68.26
2023-10-26T11:36:48.555Z,68.41
2023-10-26T11:37:48.732Z,68.51
2023-10-26T11:38:48.578Z,68.62
2023-10-26T11:39:48.527Z,68.67
2023-10-26T11:40:48.475Z,68.71
2023-10-26T11:41:49.811Z,68.82
2023-10-26T11:42:48.478Z,68.87
2023-10-26T11:43:48.692Z,69.01
2023-10-26T11:44:48.430Z,69.21
2023-10-26T11:45:48.469Z,69.41
2023-10-26T11:46:48.446Z,69.41
2023-10-26T11:47:48.413Z,69.31
2023-10-26T11:48:49.064Z,69.41
2023-10-26T11:49:49.893Z,69.51
2023-10-26T11:50:48.743Z,69.60
2023-10-26T11:51:54.153Z,69.68
2023-10-26T11:52:49.347Z,69.81
2023-10-26T11:53:48.464Z,69.83
2023-10-26T11:54:50.179Z,69.54
2023-10-26T11:55:48.423Z,69.47
2023-10-26T11:56:49.598Z,69.52
2023-10-26T11:57:48.359Z,69.46
2023-10-26T11:58:48.995Z,69.55
2023-10-26T11:59:48.395Z,69.64
2023-10-26T12:00:50.151Z,69.76
2023-10-26T12:01:48.429Z,69.87
2023-10-26T12:02:48.308Z,69.99
2023-10-26T12:03:48.317Z,70.00
2023-10-26T12:04:48.210Z,69.96
2023-10-26T12:05:48.203Z,69.93
2023-10-26T12:06:48.389Z,69.46
2023-10-26T12:07:48.569Z,69.29
2023-10-26T12:08:48.205Z,69.27
2023-10-26T12:09:48.180Z,69.33
2023-10-26T12:10:48.159Z,68.99
2023-10-26T12:11:48.167Z,68.62
2023-10-26T12:12:48.171Z,68.50
2023-10-26T12:13:48.115Z,68.19
2023-10-26T12:14:48.119Z,68.14
2023-10-26T12:15:48.186Z,68.18
2023-10-26T12:16:48.094Z,68.40
2023-10-26T12:17:48.148Z,68.36
2023-10-26T12:18:48.136Z,68.24
2023-10-26T12:19:48.094Z,68.25
2023-10-26T12:20:48.037Z,68.28
2023-10-26T12:21:48.047Z,68.30
2023-10-26T12:22:48.031Z,68.36
2023-10-26T12:23:48.024Z,68.40
2023-10-26T12:24:48.125Z,68.37
2023-10-26T12:25:48.086Z,68.54
2023-10-26T12:26:47.978Z,68.61
2023-10-26T12:28:20.507Z,68.61
2023-10-26T12:28:49.012Z,68.56
2023-10-26T12:29:47.999Z,68.59
2023-10-26T12:30:49.508Z,68.55
2023-10-26T12:31:48.156Z,68.61
2023-10-26T12:32:47.969Z,68.35
2023-10-26T12:33:48.036Z,68.30
2023-10-26T12:34:55.453Z,68.35
2023-10-26T12:35:47.956Z,68.34
2023-10-26T12:36:47.948Z,68.36
2023-10-26T12:37:47.892Z,68.31
2023-10-26T12:38:47.925Z,68.34
2023-10-26T12:39:47.923Z,68.36
2023-10-26T12:40:47.936Z,68.54
2023-10-26T12:41:47.851Z,68.58
2023-10-26T12:42:47.888Z,68.47
2023-10-26T12:43:47.900Z,68.47
2023-10-26T12:44:47.858Z,68.40
2023-10-26T12:45:47.897Z,68.54
2023-10-26T12:46:47.808Z,68.42
2023-10-26T12:47:47.844Z,68.34
2023-10-26T12:48:47.830Z,68.43
2023-10-26T12:49:47.759Z,68.21
2023-10-26T12:50:47.740Z,68.12
2023-10-26T12:51:47.807Z,68.14
2023-10-26T12:52:47.738Z,68.20
2023-10-26T12:53:47.741Z,68.16
2023-10-26T12:54:47.774Z,68.16
2023-10-26T12:55:47.702Z,68.27